createdAt,value
2018-03-31T00:00:56.672Z,15.23
2018-03-31T00:03:24.907Z,13.53
2018-03-31T00:05:52.811Z,14.77
2018-03-31T00:08:20.729Z,14.80
2018-03-31T00:10:48.638Z,15.57
2018-03-31T00:13:16.482Z,14.63
2018-03-31T00:15:44.432Z,14.40
2018-03-31T00:18:12.304Z,16.47
2018-03-31T00:20:40.333Z,15.23
2018-03-31T00:23:08.285Z,13.80
2018-03-31T00:25:36.166Z,13.77
2018-03-31T00:28:04.145Z,12.80
2018-03-31T00:30:32.041Z,15.03
2018-03-31T00:32:59.919Z,14.33
2018-03-31T00:35:27.813Z,15.43
2018-03-31T00:37:55.726Z,13.17
2018-03-31T00:40:23.625Z,12.97
2018-03-31T00:42:51.552Z,13.33
2018-03-31T00:45:19.466Z,13.87
2018-03-31T00:47:47.406Z,14.40
2018-03-31T00:50:15.279Z,12.20
2018-03-31T00:52:43.271Z,12.03
2018-03-31T00:55:11.135Z,13.13
2018-03-31T00:57:39.085Z,13.23
2018-03-31T01:00:07.005Z,12.30
2018-03-31T01:02:34.921Z,14.33
2018-03-31T01:05:02.959Z,14.53
2018-03-31T01:07:30.833Z,15.17
2018-03-31T01:09:58.707Z,13.80
2018-03-31T01:12:26.636Z,13.70
2018-03-31T01:14:54.507Z,12.77
2018-03-31T01:17:22.440Z,13.10
2018-03-31T01:19:50.330Z,13.70
2018-03-31T01:22:18.221Z,12.90
2018-03-31T01:24:46.136Z,13.90
2018-03-31T01:27:14.024Z,13.63
2018-03-31T01:29:42.088Z,13.80
2018-03-31T01:32:10.015Z,12.90
2018-03-31T01:34:37.942Z,14.00
2018-03-31T01:37:05.816Z,12.90
2018-03-31T01:39:33.743Z,13.50
2018-03-31T01:42:01.648Z,13.13
2018-03-31T01:44:29.587Z,12.67
2018-03-31T01:46:57.581Z,13.70
2018-03-31T01:49:25.496Z,14.70
2018-03-31T01:51:53.434Z,12.60
2018-03-31T01:54:21.366Z,13.33
2018-03-31T01:56:49.277Z,14.57
2018-03-31T01:59:17.321Z,12.43
2018-03-31T02:01:45.233Z,12.97
2018-03-31T02:04:13.219Z,13.30
2018-03-31T02:06:41.182Z,14.17
2018-03-31T02:09:09.062Z,13.93
2018-03-31T02:11:37.004Z,12.63
2018-03-31T02:14:04.919Z,13.43
2018-03-31T02:16:32.816Z,14.20
2018-03-31T02:19:00.765Z,15.47
2018-03-31T02:21:28.690Z,15.40
2018-03-31T02:23:56.618Z,14.40
2018-03-31T02:26:24.476Z,14.37
2018-03-31T02:28:52.445Z,15.20
2018-03-31T02:31:20.329Z,13.73
2018-03-31T02:33:48.218Z,12.17
2018-03-31T02:36:16.132Z,13.60
2018-03-31T02:38:44.020Z,13.17
2018-03-31T02:41:11.937Z,12.90
2018-03-31T02:43:39.821Z,12.87
2018-03-31T02:46:07.743Z,13.53
2018-03-31T02:48:35.717Z,12.70
2018-03-31T02:51:03.578Z,13.30
2018-03-31T02:53:31.498Z,12.87
2018-03-31T02:55:59.436Z,14.30
2018-03-31T02:58:27.340Z,12.23
2018-03-31T03:00:55.407Z,13.50
2018-03-31T03:03:23.554Z,12.37
2018-03-31T03:05:51.475Z,14.83
2018-03-31T03:08:19.529Z,14.50
2018-03-31T03:10:47.400Z,16.00
2018-03-31T03:13:15.344Z,14.50
2018-03-31T03:15:42.961Z,15.23
2018-03-31T03:18:10.568Z,14.83
2018-03-31T03:20:38.136Z,14.20
2018-03-31T03:23:05.771Z,13.87
2018-03-31T03:25:33.340Z,14.00
2018-03-31T03:28:01.005Z,14.73
2018-03-31T03:30:28.611Z,13.80
2018-03-31T03:32:56.211Z,14.50
2018-03-31T03:35:23.822Z,14.80
2018-03-31T03:37:51.405Z,15.33
2018-03-31T03:40:19.021Z,14.87
2018-03-31T03:42:46.579Z,14.47
2018-03-31T03:45:14.211Z,18.30
2018-03-31T03:47:41.818Z,28.93
2018-03-31T03:50:09.413Z,20.90
2018-03-31T03:52:37.165Z,26.17
2018-03-31T03:55:04.759Z,32.00
2018-03-31T03:57:32.324Z,26.30
2018-03-31T03:59:59.932Z,26.30
2018-03-31T04:02:27.655Z,28.43
2018-03-31T04:04:55.220Z,27.40
2018-03-31T04:07:22.864Z,25.67
2018-03-31T04:09:50.475Z,20.10
2018-03-31T04:12:18.061Z,20.53
2018-03-31T04:14:45.776Z,19.27
2018-03-31T04:17:13.388Z,19.83
2018-03-31T04:19:41.012Z,22.10
2018-03-31T04:22:08.588Z,19.73
2018-03-31T04:24:36.204Z,21.27
2018-03-31T04:27:03.983Z,19.47
2018-03-31T04:29:31.553Z,21.00
2018-03-31T04:31:59.356Z,20.37
2018-03-31T04:34:26.941Z,20.93
2018-03-31T04:36:54.509Z,19.93
2018-03-31T04:39:22.117Z,21.10
2018-03-31T04:41:49.687Z,21.57
2018-03-31T04:44:17.316Z,28.87
2018-03-31T04:46:44.956Z,26.80
2018-03-31T04:49:12.541Z,22.50
2018-03-31T04:51:40.184Z,31.23
2018-03-31T04:54:07.844Z,24.13
2018-03-31T04:56:35.408Z,25.27
2018-03-31T04:59:03.052Z,25.33
2018-03-31T05:01:30.697Z,23.73
2018-03-31T05:03:58.308Z,22.83
2018-03-31T05:06:25.939Z,23.57
2018-03-31T05:08:53.598Z,25.73
2018-03-31T05:11:21.248Z,23.93
2018-03-31T05:13:48.850Z,23.07
2018-03-31T05:16:16.460Z,21.90
2018-03-31T05:18:44.139Z,23.67
2018-03-31T05:21:11.727Z,21.63
2018-03-31T05:23:39.534Z,21.60
2018-03-31T05:26:07.157Z,20.27
2018-03-31T05:28:34.862Z,22.70
2018-03-31T05:31:02.579Z,20.40
2018-03-31T05:33:30.204Z,24.70
2018-03-31T05:35:57.780Z,20.50
2018-03-31T05:38:25.355Z,21.30
2018-03-31T05:40:52.934Z,22.47
2018-03-31T05:43:20.529Z,21.67
2018-03-31T05:45:48.144Z,23.03
2018-03-31T05:48:15.708Z,22.03
2018-03-31T05:50:43.295Z,20.07
2018-03-31T05:53:10.922Z,21.90
2018-03-31T05:55:38.533Z,22.90
2018-03-31T05:58:06.118Z,22.07
2018-03-31T06:00:33.772Z,20.93
2018-03-31T06:03:01.348Z,22.67
2018-03-31T06:05:28.921Z,21.53
2018-03-31T06:07:56.518Z,23.07
2018-03-31T06:10:24.161Z,24.37
2018-03-31T06:12:51.748Z,23.80
2018-03-31T06:15:19.340Z,21.53
2018-03-31T06:17:46.953Z,23.60
2018-03-31T06:20:14.646Z,22.77
2018-03-31T06:22:42.243Z,22.13
2018-03-31T06:25:09.878Z,22.80
2018-03-31T06:27:37.481Z,23.73
2018-03-31T06:30:05.040Z,22.50
2018-03-31T06:32:32.663Z,23.00
2018-03-31T06:35:00.245Z,27.30
2018-03-31T06:37:27.877Z,30.03
2018-03-31T06:39:55.519Z,31.60
2018-03-31T06:42:23.134Z,29.30
2018-03-31T06:44:50.706Z,30.87
2018-03-31T06:47:18.340Z,30.70
2018-03-31T06:49:46.037Z,38.37
2018-03-31T06:52:13.618Z,37.17
2018-03-31T06:54:41.201Z,36.40
2018-03-31T06:57:08.824Z,34.13
2018-03-31T06:59:36.438Z,32.27
2018-03-31T07:02:04.000Z,32.10
2018-03-31T07:04:31.622Z,33.37
2018-03-31T07:06:59.218Z,37.77
2018-03-31T07:09:26.848Z,33.30
2018-03-31T07:11:54.441Z,33.93
2018-03-31T07:14:22.044Z,31.60
2018-03-31T07:16:49.626Z,31.53
2018-03-31T07:19:17.245Z,28.27
2018-03-31T07:21:44.868Z,27.43
2018-03-31T07:24:12.585Z,27.23
2018-03-31T07:26:40.297Z,28.53
2018-03-31T07:29:07.877Z,26.97
2018-03-31T07:31:35.501Z,26.67
2018-03-31T07:34:03.098Z,25.40
2018-03-31T07:36:30.753Z,27.20
2018-03-31T07:38:58.341Z,28.70
2018-03-31T07:41:25.923Z,26.87
2018-03-31T07:43:53.561Z,25.90
2018-03-31T07:46:21.252Z,26.03
2018-03-31T07:48:48.902Z,26.33
2018-03-31T07:51:16.528Z,25.40
2018-03-31T07:53:44.333Z,25.47
2018-03-31T07:56:11.920Z,24.17
2018-03-31T07:58:39.495Z,24.73
2018-03-31T08:01:07.132Z,24.00
2018-03-31T08:03:34.708Z,25.87
2018-03-31T08:06:02.881Z,23.73
2018-03-31T08:08:30.554Z,24.53
2018-03-31T08:10:58.136Z,23.73
2018-03-31T08:13:25.745Z,24.60
2018-03-31T08:15:53.432Z,23.47
2018-03-31T08:18:21.198Z,21.67
2018-03-31T08:20:48.846Z,26.73
2018-03-31T08:23:16.484Z,23.97
2018-03-31T08:25:44.138Z,23.60
2018-03-31T08:28:11.726Z,25.20
2018-03-31T08:30:39.356Z,24.03
2018-03-31T08:33:06.940Z,23.10
2018-03-31T08:35:34.540Z,22.87
2018-03-31T08:38:02.173Z,24.30
2018-03-31T08:40:29.748Z,22.13
2018-03-31T08:42:57.387Z,22.27
2018-03-31T08:45:24.975Z,22.03
2018-03-31T08:47:52.676Z,22.97
2018-03-31T08:50:20.264Z,21.03
2018-03-31T08:52:47.915Z,21.47
2018-03-31T08:55:15.533Z,22.57
2018-03-31T08:57:43.135Z,23.17
2018-03-31T09:00:10.708Z,21.67
2018-03-31T09:02:38.289Z,23.20
2018-03-31T09:05:05.909Z,22.90
2018-03-31T09:07:33.522Z,21.03
2018-03-31T09:10:01.179Z,19.77
2018-03-31T09:12:28.748Z,20.17
2018-03-31T09:14:57.339Z,20.10
2018-03-31T09:17:25.028Z,22.40
2018-03-31T09:19:52.676Z,21.93
2018-03-31T09:22:20.347Z,22.53
2018-03-31T09:24:47.941Z,21.97
2018-03-31T09:27:15.917Z,22.60
2018-03-31T09:29:43.621Z,21.17
2018-03-31T09:32:11.223Z,23.73
2018-03-31T09:34:38.834Z,23.23
2018-03-31T09:37:06.413Z,22.67
2018-03-31T09:39:34.022Z,23.33
2018-03-31T09:42:01.642Z,22.20
2018-03-31T09:44:29.293Z,21.87
2018-03-31T09:46:56.896Z,22.37
2018-03-31T09:49:24.529Z,21.93
2018-03-31T09:51:52.158Z,22.33
2018-03-31T09:54:19.822Z,18.73
2018-03-31T09:56:47.416Z,17.87
2018-03-31T09:59:15.037Z,17.47
2018-03-31T10:01:42.610Z,16.47
2018-03-31T10:04:10.196Z,15.73
2018-03-31T10:06:37.809Z,15.83
2018-03-31T10:09:05.382Z,13.53
2018-03-31T10:11:33.353Z,13.10
2018-03-31T10:14:01.006Z,12.00
2018-03-31T10:16:28.649Z,13.57
2018-03-31T10:18:56.246Z,12.63
2018-03-31T10:21:23.879Z,11.63
2018-03-31T10:23:51.600Z,10.23
2018-03-31T10:26:19.213Z,8.83
2018-03-31T10:28:46.816Z,9.47
2018-03-31T10:31:14.433Z,9.23
2018-03-31T10:33:42.038Z,8.73
2018-03-31T10:36:09.631Z,9.87
2018-03-31T10:38:37.259Z,9.23
2018-03-31T10:41:04.828Z,8.67
2018-03-31T10:43:32.392Z,4.90
2018-03-31T10:45:59.997Z,4.37
2018-03-31T10:48:27.564Z,3.57
2018-03-31T10:50:55.173Z,3.80
2018-03-31T10:53:22.737Z,3.50
2018-03-31T10:55:50.321Z,4.30
2018-03-31T10:58:17.928Z,5.10
2018-03-31T11:00:45.565Z,4.05
2018-03-31T11:03:13.174Z,4.10
2018-03-31T11:05:40.855Z,4.10
2018-03-31T11:08:08.490Z,4.15
2018-03-31T11:10:36.128Z,4.60
2018-03-31T11:13:03.976Z,4.30
2018-03-31T11:15:32.033Z,4.10
2018-03-31T11:17:59.601Z,3.63
2018-03-31T11:20:27.164Z,3.25
2018-03-31T11:22:55.144Z,2.77
2018-03-31T11:25:22.774Z,1.90
2018-03-31T11:27:50.334Z,1.87
2018-03-31T11:30:18.120Z,2.23
2018-03-31T11:32:45.706Z,2.27
2018-03-31T11:35:13.272Z,2.40
2018-03-31T11:37:41.200Z,2.10
2018-03-31T11:40:08.757Z,1.93
2018-03-31T11:42:36.312Z,2.30
2018-03-31T11:45:04.494Z,1.80
2018-03-31T11:47:32.076Z,1.37
2018-03-31T11:49:59.653Z,2.47
2018-03-31T11:52:27.408Z,2.70
2018-03-31T11:54:54.980Z,1.77
2018-03-31T11:57:22.553Z,4.97
2018-03-31T11:59:50.699Z,1.60
2018-03-31T12:02:18.302Z,2.83
2018-03-31T12:04:45.861Z,1.80
2018-03-31T12:07:13.773Z,2.43
2018-03-31T12:09:41.350Z,2.23
2018-03-31T12:12:08.901Z,2.17
2018-03-31T12:14:36.869Z,2.00
2018-03-31T12:17:04.437Z,1.30
2018-03-31T12:19:32.006Z,1.83
2018-03-31T12:21:59.944Z,2.37
2018-03-31T12:24:27.520Z,3.80
2018-03-31T12:26:55.095Z,1.45
2018-03-31T12:29:22.950Z,1.97
2018-03-31T12:31:50.520Z,1.77
2018-03-31T12:34:18.093Z,2.27
2018-03-31T12:36:46.145Z,2.10
2018-03-31T12:39:13.716Z,2.05
2018-03-31T12:41:41.417Z,2.07
2018-03-31T12:44:09.024Z,2.87
2018-03-31T12:46:36.598Z,3.47
2018-03-31T12:49:04.177Z,2.00
2018-03-31T12:51:33.159Z,1.95
2018-03-31T12:54:00.814Z,1.80
2018-03-31T12:56:28.395Z,2.40
2018-03-31T12:58:56.005Z,2.00
2018-03-31T13:01:23.581Z,1.93
2018-03-31T13:03:51.213Z,2.60
2018-03-31T13:06:18.821Z,7.23
2018-03-31T13:08:46.387Z,1.90
2018-03-31T13:11:13.997Z,2.00
2018-03-31T13:13:41.579Z,2.25
2018-03-31T13:16:09.311Z,2.50
2018-03-31T13:18:37.096Z,2.58
2018-03-31T13:21:04.662Z,6.97
2018-03-31T13:23:32.297Z,4.62
2018-03-31T13:26:00.054Z,2.25
2018-03-31T13:28:27.696Z,2.20
2018-03-31T13:30:55.287Z,1.90
2018-03-31T13:33:23.024Z,2.03
2018-03-31T13:35:50.725Z,1.80
2018-03-31T13:38:18.288Z,1.47
2018-03-31T13:40:45.949Z,2.50
2018-03-31T13:43:13.524Z,3.13
2018-03-31T13:45:41.105Z,2.80
2018-03-31T13:48:08.759Z,2.60
2018-03-31T13:50:36.353Z,1.90
2018-03-31T13:53:03.973Z,2.35
2018-03-31T13:55:31.557Z,2.03
2018-03-31T13:57:59.133Z,2.17
2018-03-31T14:00:26.731Z,1.60
2018-03-31T14:02:54.319Z,1.93
2018-03-31T14:05:21.936Z,1.77
2018-03-31T14:07:49.504Z,6.77
2018-03-31T14:10:17.165Z,3.08
2018-03-31T14:12:44.817Z,2.83
2018-03-31T14:15:12.521Z,6.07
2018-03-31T14:17:40.131Z,3.22
2018-03-31T14:20:07.752Z,2.50
2018-03-31T14:22:35.339Z,2.10
2018-03-31T14:25:03.060Z,2.60
2018-03-31T14:27:30.733Z,2.60
2018-03-31T14:29:58.426Z,2.83
2018-03-31T14:32:26.120Z,2.50
2018-03-31T14:34:53.697Z,3.73
2018-03-31T14:37:21.321Z,3.60
2018-03-31T14:39:48.880Z,1.87
2018-03-31T14:42:16.507Z,2.40
2018-03-31T14:44:44.125Z,3.90
2018-03-31T14:47:11.716Z,4.17
2018-03-31T14:49:39.351Z,3.43
2018-03-31T14:52:06.930Z,1.73
2018-03-31T14:54:34.556Z,2.43
2018-03-31T14:57:02.326Z,2.40
2018-03-31T14:59:30.122Z,5.77
2018-03-31T15:01:58.060Z,3.47
2018-03-31T15:04:25.733Z,2.30
2018-03-31T15:06:53.356Z,2.07
2018-03-31T15:09:21.302Z,2.07
2018-03-31T15:11:49.175Z,1.87
2018-03-31T15:14:17.869Z,2.23
2018-03-31T15:16:45.531Z,2.13
2018-03-31T15:19:13.355Z,2.13
2018-03-31T15:21:41.293Z,2.30
2018-03-31T15:24:08.979Z,2.73
2018-03-31T15:26:36.655Z,3.77
2018-03-31T15:29:04.242Z,8.80
2018-03-31T15:31:32.083Z,2.47
2018-03-31T15:33:59.719Z,2.50
2018-03-31T15:36:27.372Z,2.67
2018-03-31T15:38:54.950Z,3.40
2018-03-31T15:41:22.597Z,2.17
2018-03-31T15:43:50.390Z,2.80
2018-03-31T15:46:18.181Z,2.47
2018-03-31T15:48:45.856Z,3.20
2018-03-31T15:51:13.615Z,4.33
2018-03-31T15:53:41.387Z,3.13
2018-03-31T15:56:09.025Z,2.63
2018-03-31T15:58:36.644Z,5.17
2018-03-31T16:01:04.206Z,3.63
2018-03-31T16:03:31.846Z,2.90
2018-03-31T16:05:59.437Z,2.87
2018-03-31T16:08:27.244Z,2.43
2018-03-31T16:10:54.883Z,3.00
2018-03-31T16:13:22.464Z,2.67
2018-03-31T16:15:50.102Z,3.20
2018-03-31T16:18:17.683Z,2.53
2018-03-31T16:20:45.565Z,2.47
2018-03-31T16:23:13.139Z,2.60
2018-03-31T16:25:40.747Z,2.30
2018-03-31T16:28:08.701Z,2.10
2018-03-31T16:30:36.339Z,3.30
2018-03-31T16:33:04.004Z,2.37
2018-03-31T16:35:32.269Z,2.10
2018-03-31T16:37:59.881Z,2.40
2018-03-31T16:40:27.542Z,2.37
2018-03-31T16:42:55.197Z,2.07
2018-03-31T16:45:22.789Z,2.80
2018-03-31T16:47:50.398Z,2.60
2018-03-31T16:50:18.100Z,2.97
2018-03-31T16:52:45.721Z,2.50
2018-03-31T16:55:13.394Z,2.00
2018-03-31T16:57:40.970Z,2.00
2018-03-31T17:00:08.649Z,2.20
2018-03-31T17:02:36.289Z,2.57
2018-03-31T17:05:03.889Z,2.47
2018-03-31T17:07:31.493Z,2.40
2018-03-31T17:09:59.069Z,2.37
2018-03-31T17:12:26.690Z,2.10
2018-03-31T17:14:54.251Z,2.80
2018-03-31T17:17:21.856Z,2.80
2018-03-31T17:19:49.474Z,2.33
2018-03-31T17:22:17.042Z,2.40
2018-03-31T17:24:44.669Z,2.73
2018-03-31T17:27:12.270Z,3.37
2018-03-31T17:29:40.038Z,4.00
2018-03-31T17:32:07.673Z,3.43
2018-03-31T17:34:35.245Z,3.80
2018-03-31T17:37:02.829Z,4.00
2018-03-31T17:39:30.457Z,3.80
2018-03-31T17:41:58.040Z,2.40
2018-03-31T17:44:25.673Z,2.10
2018-03-31T17:46:53.342Z,2.57
2018-03-31T17:49:21.044Z,2.33
2018-03-31T17:51:48.760Z,2.33
2018-03-31T17:54:16.448Z,3.47
2018-03-31T17:56:44.048Z,4.73
2018-03-31T17:59:11.624Z,3.07
2018-03-31T18:01:39.185Z,2.00
2018-03-31T18:04:06.832Z,2.40
2018-03-31T18:06:34.417Z,2.20
2018-03-31T18:09:02.027Z,2.70
2018-03-31T18:11:29.645Z,2.40
2018-03-31T18:13:57.264Z,2.10
2018-03-31T18:16:24.881Z,2.23
2018-03-31T18:18:52.456Z,4.53
2018-03-31T18:21:20.077Z,4.57
2018-03-31T18:23:47.645Z,3.73
2018-03-31T18:26:15.236Z,5.03
2018-03-31T18:28:42.871Z,6.33
2018-03-31T18:31:10.444Z,6.83
2018-03-31T18:33:38.109Z,6.40
2018-03-31T18:36:05.733Z,9.17
2018-03-31T18:38:33.373Z,8.77
2018-03-31T18:41:00.988Z,9.00
2018-03-31T18:43:28.608Z,11.83
2018-03-31T18:45:56.242Z,6.10
2018-03-31T18:48:23.906Z,9.80
2018-03-31T18:50:51.532Z,9.03
2018-03-31T18:53:19.147Z,9.43
2018-03-31T18:55:46.924Z,10.37
2018-03-31T18:58:14.592Z,11.43
2018-03-31T19:00:42.225Z,11.53
2018-03-31T19:03:09.854Z,11.40
2018-03-31T19:05:37.626Z,11.33
2018-03-31T19:08:05.212Z,13.53
2018-03-31T19:10:32.804Z,14.40
2018-03-31T19:13:00.608Z,14.70
2018-03-31T19:15:28.197Z,17.30
2018-03-31T19:17:55.829Z,16.87
2018-03-31T19:20:23.524Z,16.20
2018-03-31T19:22:51.126Z,18.10
2018-03-31T19:25:24.300Z,14.53
2018-03-31T19:27:51.922Z,15.27
2018-03-31T19:30:19.601Z,14.23
2018-03-31T19:32:47.253Z,13.10
2018-03-31T19:35:15.049Z,12.30
2018-03-31T19:37:42.647Z,10.97
2018-03-31T19:40:10.221Z,11.53
2018-03-31T19:42:37.808Z,10.33
2018-03-31T19:45:05.398Z,9.30
2018-03-31T19:47:33.008Z,10.27
2018-03-31T19:50:00.712Z,9.20
2018-03-31T19:52:28.321Z,9.93
2018-03-31T19:54:55.918Z,9.03
2018-03-31T19:57:23.543Z,9.30
2018-03-31T19:59:51.183Z,8.70
2018-03-31T20:02:18.833Z,9.73
2018-03-31T20:04:46.435Z,8.67
2018-03-31T20:07:14.020Z,9.07
2018-03-31T20:09:41.640Z,8.20
2018-03-31T20:12:09.235Z,9.63
2018-03-31T20:14:36.845Z,8.90
2018-03-31T20:17:04.512Z,9.27
2018-03-31T20:19:32.163Z,9.23
2018-03-31T20:21:59.752Z,8.93
2018-03-31T20:24:27.329Z,9.13
2018-03-31T20:26:54.995Z,5.73
2018-03-31T20:29:22.636Z,6.00
2018-03-31T20:31:50.274Z,6.30
2018-03-31T20:34:17.841Z,7.83
2018-03-31T20:36:45.477Z,6.57
2018-03-31T20:39:13.060Z,5.23
2018-03-31T20:41:40.662Z,4.83
2018-03-31T20:44:08.227Z,5.13
2018-03-31T20:46:35.917Z,3.20
2018-03-31T20:49:03.502Z,3.77
2018-03-31T20:51:31.110Z,6.07
2018-03-31T20:53:58.735Z,5.20
2018-03-31T20:56:26.434Z,6.40
2018-03-31T20:58:54.198Z,4.87
2018-03-31T21:01:21.765Z,6.60
2018-03-31T21:03:49.380Z,3.17
2018-03-31T21:06:16.940Z,4.43
2018-03-31T21:08:44.644Z,5.60
2018-03-31T21:11:12.301Z,4.80
2018-03-31T21:13:39.869Z,5.87
2018-03-31T21:16:07.548Z,7.00
2018-03-31T21:18:35.261Z,6.83
2018-03-31T21:21:02.804Z,7.03
2018-03-31T21:23:30.418Z,4.67
2018-03-31T21:25:57.985Z,5.40
2018-03-31T21:28:25.637Z,5.37
2018-03-31T21:30:53.225Z,5.20
2018-03-31T21:33:20.849Z,3.87
2018-03-31T21:35:48.491Z,3.83
2018-03-31T21:38:16.064Z,4.33
2018-03-31T21:40:43.684Z,4.50
2018-03-31T21:43:11.249Z,3.60
2018-03-31T21:45:38.979Z,3.87
2018-03-31T21:48:06.596Z,3.77
2018-03-31T21:50:34.262Z,3.80
2018-03-31T21:53:01.837Z,4.60
2018-03-31T21:55:29.449Z,4.80
2018-03-31T21:57:57.097Z,5.13
2018-03-31T22:00:24.729Z,6.23
2018-03-31T22:02:52.407Z,5.23
2018-03-31T22:05:19.978Z,5.47
2018-03-31T22:07:47.586Z,6.67
2018-03-31T22:10:15.172Z,7.07
2018-03-31T22:12:42.868Z,8.10
2018-03-31T22:15:16.109Z,8.57
2018-03-31T22:17:43.746Z,6.00
2018-03-31T22:20:11.317Z,6.70
2018-03-31T22:22:38.959Z,5.50
2018-03-31T22:25:06.530Z,6.40
2018-03-31T22:27:34.128Z,4.83
2018-03-31T22:30:01.852Z,5.30
2018-03-31T22:32:29.416Z,5.00
2018-03-31T22:34:56.990Z,5.80
2018-03-31T22:37:24.564Z,5.67
2018-03-31T22:39:52.177Z,5.80
2018-03-31T22:42:19.751Z,6.10
2018-03-31T22:44:47.371Z,6.27
2018-03-31T22:47:14.944Z,5.67
2018-03-31T22:49:42.509Z,5.37
2018-03-31T22:52:10.125Z,5.83
2018-03-31T22:54:37.725Z,5.73
2018-03-31T22:57:05.329Z,4.20
2018-03-31T22:59:33.002Z,7.73
2018-03-31T23:02:00.579Z,7.63
2018-03-31T23:04:28.472Z,5.97
2018-03-31T23:06:56.327Z,5.00
2018-03-31T23:09:24.238Z,3.77
2018-03-31T23:11:52.120Z,4.23
2018-03-31T23:14:19.993Z,4.70
2018-03-31T23:16:47.926Z,5.60
2018-03-31T23:19:15.815Z,4.50
2018-03-31T23:21:43.884Z,3.10
2018-03-31T23:24:11.745Z,3.57
2018-03-31T23:26:39.712Z,4.63
2018-03-31T23:29:07.643Z,4.60
2018-03-31T23:31:35.492Z,4.60
2018-03-31T23:34:03.369Z,4.17
2018-03-31T23:36:31.294Z,3.47
2018-03-31T23:38:58.864Z,3.03
2018-03-31T23:41:26.502Z,2.60
2018-03-31T23:43:54.107Z,2.53
2018-03-31T23:46:21.686Z,1.97
2018-03-31T23:48:49.326Z,2.50
2018-03-31T23:51:16.913Z,2.30
2018-03-31T23:53:44.505Z,2.53
2018-03-31T23:56:12.137Z,2.67
2018-03-31T23:58:39.771Z,2.43
